North Natick, Massachusetts
Current Conditions -  °F | °C
As of 10:25 AM on Wednesday 22 Oct 2014 (Local Time) from KOWD Reporting Station
Light Rain Light Rain  
Wind Chill: 54°   Ceiling: 800
Heat Index: 54°   Visibility: 2.5mi
Dew Point: 52°   Wind: 13mph
Humidity: 93%   Direction: 20°NNE
Pressure: 29.99"   Gusts: 29mph
Location:  42.2868°N, 71.3531°W
Report Text: KOWD 221425Z 02011G25KT 2 1/2SM -RA BR OVC008 12/11 A2999 RMK AO2 CIG 006V012 P0002 T01220111
Loading
Personal Weather Stations






























Interactive Weather Map New forecast layout! Learn more

10-Day Weather Forecast

Advertisements
Track Severe Weather on mobile